createdAt,value
2023-05-06T00:01:05.734Z,3.60
2023-05-06T00:03:32.740Z,3.00
2023-05-06T00:05:59.647Z,3.08
2023-05-06T00:08:26.421Z,3.17
2023-05-06T00:10:53.114Z,3.45
2023-05-06T00:13:19.959Z,2.85
2023-05-06T00:15:46.760Z,2.83
2023-05-06T00:18:15.208Z,3.22
2023-05-06T00:20:43.228Z,3.38
2023-05-06T00:23:09.923Z,3.42
2023-05-06T00:25:36.639Z,3.40
2023-05-06T00:28:03.397Z,3.60
2023-05-06T00:30:31.186Z,3.28
2023-05-06T00:32:57.880Z,4.60
2023-05-06T00:35:24.745Z,3.08
2023-05-06T00:38:17.028Z,3.13
2023-05-06T00:40:43.797Z,2.75
2023-05-06T00:43:10.500Z,4.40
2023-05-06T00:45:38.179Z,3.33
2023-05-06T00:48:06.335Z,2.72
2023-05-06T00:50:34.548Z,2.50
2023-05-06T00:53:03.884Z,2.75
2023-05-06T00:55:31.176Z,2.90
2023-05-06T00:57:58.266Z,3.38
2023-05-06T01:00:25.125Z,3.00
2023-05-06T01:02:51.953Z,2.92
2023-05-06T01:05:22.181Z,2.63
2023-05-06T01:08:12.215Z,2.65
2023-05-06T01:10:47.733Z,2.83
2023-05-06T01:13:38.957Z,2.95
2023-05-06T01:16:07.344Z,2.75
2023-05-06T01:18:35.143Z,2.45
2023-05-06T01:21:04.536Z,2.38
2023-05-06T01:23:58.090Z,2.80
2023-05-06T01:26:25.414Z,2.78
2023-05-06T01:28:52.313Z,2.63
2023-05-06T01:31:37.748Z,2.95
2023-05-06T01:34:21.071Z,2.95
2023-05-06T01:37:12.683Z,2.72
2023-05-06T01:39:42.027Z,3.10
2023-05-06T01:42:10.121Z,2.95
2023-05-06T01:44:38.888Z,2.83
2023-05-06T01:47:07.383Z,3.28
2023-05-06T01:49:34.607Z,3.65
2023-05-06T01:52:02.538Z,3.20
2023-05-06T01:54:29.297Z,2.75
2023-05-06T01:56:55.984Z,2.58
2023-05-06T01:59:22.700Z,3.00
2023-05-06T02:01:49.433Z,3.03
2023-05-06T02:04:16.180Z,2.72
2023-05-06T02:06:42.865Z,3.08
2023-05-06T02:09:09.580Z,2.90
2023-05-06T02:11:36.273Z,2.90
2023-05-06T02:14:02.984Z,3.10
2023-05-06T02:16:29.721Z,2.97
2023-05-06T02:18:56.510Z,3.03
2023-05-06T02:21:23.591Z,2.88
2023-05-06T02:23:50.737Z,3.42
2023-05-06T02:26:17.603Z,2.55
2023-05-06T02:28:44.330Z,2.67
2023-05-06T02:31:14.998Z,2.75
2023-05-06T02:33:41.927Z,2.28
2023-05-06T02:36:08.726Z,2.35
2023-05-06T02:38:35.388Z,2.25
2023-05-06T02:41:02.134Z,2.47
2023-05-06T02:43:28.931Z,2.65
2023-05-06T02:45:55.703Z,2.53
2023-05-06T02:48:22.478Z,2.78
2023-05-06T02:50:49.394Z,2.65
2023-05-06T02:53:16.098Z,2.92
2023-05-06T02:55:42.804Z,2.58
2023-05-06T02:58:09.572Z,3.65
2023-05-06T03:00:36.474Z,3.08
2023-05-06T03:03:03.602Z,2.92
2023-05-06T03:05:30.318Z,2.67
2023-05-06T03:07:57.101Z,2.95
2023-05-06T03:10:23.874Z,2.92
2023-05-06T03:12:50.685Z,2.97
2023-05-06T03:15:17.474Z,3.33
2023-05-06T03:17:44.226Z,3.05
2023-05-06T03:20:11.089Z,2.90
2023-05-06T03:22:37.856Z,3.03
2023-05-06T03:25:05.138Z,2.20
2023-05-06T03:27:31.803Z,2.45
2023-05-06T03:29:58.468Z,2.40
2023-05-06T03:32:25.239Z,2.35
2023-05-06T03:34:51.853Z,2.78
2023-05-06T03:37:18.828Z,2.50
2023-05-06T03:39:45.457Z,2.85
2023-05-06T03:42:12.128Z,2.35
2023-05-06T03:44:38.776Z,2.55
2023-05-06T03:47:05.425Z,2.85
2023-05-06T03:49:32.044Z,2.35
2023-05-06T03:51:58.772Z,2.63
2023-05-06T03:54:25.443Z,2.72
2023-05-06T03:56:52.110Z,2.78
2023-05-06T03:59:18.732Z,2.88
2023-05-06T04:01:45.772Z,2.67
2023-05-06T04:04:12.515Z,2.35
2023-05-06T04:06:39.198Z,2.78
2023-05-06T04:09:06.368Z,2.65
2023-05-06T04:11:33.098Z,2.97
2023-05-06T04:13:59.705Z,3.45
2023-05-06T04:16:26.659Z,2.78
2023-05-06T04:18:53.317Z,2.60
2023-05-06T04:21:20.040Z,2.97
2023-05-06T04:23:46.688Z,2.90
2023-05-06T04:26:13.320Z,2.67
2023-05-06T04:28:39.992Z,2.45
2023-05-06T04:31:08.473Z,2.90
2023-05-06T04:33:35.706Z,3.03
2023-05-06T04:36:03.373Z,3.35
2023-05-06T04:38:32.003Z,3.30
2023-05-06T04:40:59.468Z,2.58
2023-05-06T04:43:29.053Z,2.83
2023-05-06T04:45:55.821Z,2.97
2023-05-06T04:48:22.897Z,2.97
2023-05-06T04:50:51.028Z,3.22
2023-05-06T04:53:17.866Z,3.38
2023-05-06T04:55:44.609Z,2.40
2023-05-06T04:58:11.321Z,2.83
2023-05-06T05:00:38.066Z,3.53
2023-05-06T05:03:04.782Z,2.97
2023-05-06T05:05:33.459Z,2.33
2023-05-06T05:08:00.218Z,2.30
2023-05-06T05:10:26.847Z,2.60
2023-05-06T05:12:53.589Z,2.40
2023-05-06T05:15:21.225Z,2.25
2023-05-06T05:17:48.396Z,2.15
2023-05-06T05:20:15.217Z,1.88
2023-05-06T05:22:41.861Z,2.30
2023-05-06T05:25:08.795Z,2.08
2023-05-06T05:27:36.294Z,2.00
2023-05-06T05:30:03.622Z,2.33
2023-05-06T05:32:30.376Z,2.97
2023-05-06T05:34:57.168Z,3.60
2023-05-06T05:37:23.864Z,2.40
2023-05-06T05:39:50.548Z,2.83
2023-05-06T05:42:17.419Z,2.45
2023-05-06T05:44:44.098Z,2.42
2023-05-06T05:47:10.801Z,2.40
2023-05-06T05:49:37.477Z,2.50
2023-05-06T05:52:04.426Z,2.67
2023-05-06T05:54:31.068Z,3.00
2023-05-06T05:56:58.061Z,2.95
2023-05-06T05:59:25.566Z,2.70
2023-05-06T06:01:52.197Z,4.68
2023-05-06T06:04:18.985Z,3.75
2023-05-06T06:06:46.308Z,3.88
2023-05-06T06:09:13.274Z,4.90
2023-05-06T06:11:39.879Z,4.93
2023-05-06T06:14:06.552Z,5.68
2023-05-06T06:16:33.359Z,7.68
2023-05-06T06:19:00.157Z,10.18
2023-05-06T06:21:27.603Z,10.30
2023-05-06T06:23:54.300Z,11.88
2023-05-06T06:26:21.299Z,10.43
2023-05-06T06:28:48.071Z,10.70
2023-05-06T06:31:14.699Z,10.25
2023-05-06T06:33:41.331Z,10.02
2023-05-06T06:36:08.387Z,10.63
2023-05-06T06:38:35.710Z,10.73
2023-05-06T06:41:02.356Z,10.70
2023-05-06T06:43:28.965Z,11.13
2023-05-06T06:45:56.311Z,11.88
2023-05-06T06:48:23.467Z,11.35
2023-05-06T06:50:50.505Z,10.07
2023-05-06T06:53:17.293Z,10.43
2023-05-06T06:55:44.841Z,10.90
2023-05-06T06:58:11.669Z,10.80
2023-05-06T07:00:38.340Z,11.98
2023-05-06T07:03:05.038Z,11.00
2023-05-06T07:05:31.667Z,11.57
2023-05-06T07:07:58.379Z,11.35
2023-05-06T07:10:25.019Z,13.23
2023-05-06T07:12:51.820Z,13.13
2023-05-06T07:15:18.602Z,16.10
2023-05-06T07:17:45.229Z,15.38
2023-05-06T07:20:12.415Z,15.23
2023-05-06T07:22:41.154Z,19.08
2023-05-06T07:25:08.646Z,15.70
2023-05-06T07:27:35.457Z,15.70
2023-05-06T07:30:02.367Z,14.75
2023-05-06T07:32:29.486Z,15.82
2023-05-06T07:34:56.168Z,16.60
2023-05-06T07:37:22.776Z,15.10
2023-05-06T07:39:49.374Z,13.90
2023-05-06T07:42:15.967Z,14.68
2023-05-06T07:44:42.598Z,15.35
2023-05-06T07:47:09.543Z,14.43
2023-05-06T07:49:36.417Z,15.40
2023-05-06T07:52:04.109Z,15.73
2023-05-06T07:54:31.729Z,13.10
2023-05-06T07:56:58.619Z,14.10
2023-05-06T07:59:25.346Z,13.27
2023-05-06T08:01:52.164Z,14.55
2023-05-06T08:04:18.912Z,12.73
2023-05-06T08:06:45.584Z,11.38
2023-05-06T08:09:16.974Z,12.82
2023-05-06T08:11:50.762Z,11.70
2023-05-06T08:14:17.420Z,11.43
2023-05-06T08:16:44.253Z,11.68
2023-05-06T08:19:10.912Z,11.15
2023-05-06T08:21:37.639Z,11.43
2023-05-06T08:24:04.412Z,11.15
2023-05-06T08:26:31.045Z,11.00
2023-05-06T08:28:58.842Z,11.10
2023-05-06T08:31:25.532Z,10.60
2023-05-06T08:33:54.445Z,10.55
2023-05-06T08:36:22.105Z,10.18
2023-05-06T08:38:50.759Z,9.77
2023-05-06T08:41:19.287Z,8.95
2023-05-06T08:43:47.687Z,9.05
2023-05-06T08:46:14.686Z,9.40
2023-05-06T08:48:41.768Z,9.05
2023-05-06T08:51:09.507Z,9.10
2023-05-06T08:53:36.492Z,9.10
2023-05-06T08:56:07.140Z,8.98
2023-05-06T08:58:35.561Z,9.23
2023-05-06T09:01:03.840Z,8.85
2023-05-06T09:03:31.399Z,8.27
2023-05-06T09:05:58.476Z,8.05
2023-05-06T09:08:25.310Z,7.45
2023-05-06T09:10:52.068Z,8.40
2023-05-06T09:13:19.820Z,7.68
2023-05-06T09:15:48.736Z,6.68
2023-05-06T09:18:16.751Z,7.15
2023-05-06T09:20:48.886Z,6.13
2023-05-06T09:23:17.806Z,5.88
2023-05-06T09:25:46.295Z,6.53
2023-05-06T09:28:14.011Z,6.07
2023-05-06T09:30:42.199Z,5.45
2023-05-06T09:33:09.324Z,5.07
2023-05-06T09:35:38.212Z,5.10
2023-05-06T09:38:07.154Z,4.70
2023-05-06T09:40:35.919Z,4.40
2023-05-06T09:43:03.424Z,5.25
2023-05-06T09:45:30.754Z,4.43
2023-05-06T09:47:58.628Z,5.35
2023-05-06T09:50:26.414Z,5.28
2023-05-06T09:52:54.400Z,5.68
2023-05-06T09:55:23.166Z,4.30
2023-05-06T09:57:50.139Z,4.32
2023-05-06T10:00:17.550Z,4.07
2023-05-06T10:02:45.741Z,4.10
2023-05-06T10:05:13.594Z,4.32
2023-05-06T10:07:42.186Z,4.43
2023-05-06T10:10:11.459Z,4.03
2023-05-06T10:12:38.298Z,5.38
2023-05-06T10:15:05.856Z,4.55
2023-05-06T10:17:34.125Z,5.05
2023-05-06T10:20:02.371Z,4.97
2023-05-06T10:22:56.648Z,4.60
2023-05-06T10:25:33.902Z,4.47
2023-05-06T10:28:01.419Z,4.10
2023-05-06T10:30:31.952Z,4.35
2023-05-06T10:33:03.270Z,4.47
2023-05-06T10:35:42.186Z,4.85
2023-05-06T10:38:15.058Z,4.13
2023-05-06T10:40:42.735Z,3.85
2023-05-06T10:43:31.898Z,3.70
2023-05-06T10:46:09.405Z,4.30
2023-05-06T10:48:38.096Z,3.70
2023-05-06T10:51:16.936Z,3.60
2023-05-06T10:54:29.295Z,4.00
2023-05-06T10:56:58.991Z,3.47
2023-05-06T10:59:26.603Z,4.32
2023-05-06T11:02:09.141Z,3.70
2023-05-06T11:04:37.445Z,4.22
2023-05-06T11:07:15.140Z,3.80
2023-05-06T11:09:59.641Z,3.47
2023-05-06T11:12:49.967Z,3.40
2023-05-06T11:15:40.444Z,3.85
2023-05-06T11:18:25.592Z,3.50
2023-05-06T11:21:12.820Z,4.07
2023-05-06T11:23:42.853Z,3.50
2023-05-06T11:26:11.107Z,3.83
2023-05-06T11:28:38.896Z,3.50
2023-05-06T11:31:06.115Z,4.65
2023-05-06T11:33:35.596Z,3.15
2023-05-06T11:36:05.053Z,3.45
2023-05-06T11:38:49.505Z,2.80
2023-05-06T11:41:16.885Z,2.30
2023-05-06T11:43:51.004Z,2.72
2023-05-06T11:46:19.844Z,2.80
2023-05-06T11:48:46.753Z,3.15
2023-05-06T11:51:13.521Z,2.60
2023-05-06T11:53:40.565Z,1.85
2023-05-06T11:56:07.818Z,1.73
2023-05-06T11:58:34.601Z,2.05
2023-05-06T12:01:03.923Z,3.05
2023-05-06T12:03:32.144Z,2.50
2023-05-06T12:05:59.656Z,2.50
2023-05-06T12:08:31.861Z,2.10
2023-05-06T12:11:07.312Z,2.15
2023-05-06T12:13:36.640Z,2.08
2023-05-06T12:16:05.668Z,2.10
2023-05-06T12:18:32.811Z,1.90
2023-05-06T12:21:05.993Z,2.10
2023-05-06T12:23:33.001Z,2.05
2023-05-06T12:26:05.745Z,1.88
2023-05-06T12:28:35.946Z,1.50
2023-05-06T12:33:50.083Z,1.10
2023-05-06T12:36:18.006Z,1.20
2023-05-06T12:38:56.201Z,1.60
2023-05-06T12:41:24.808Z,1.58
2023-05-06T12:43:54.624Z,1.80
2023-05-06T12:46:21.639Z,1.67
2023-05-06T12:49:00.800Z,1.50
2023-05-06T12:51:28.770Z,1.40
2023-05-06T12:53:55.481Z,1.17
2023-05-06T12:56:22.932Z,1.30
2023-05-06T12:58:59.782Z,1.10
2023-05-06T13:01:26.649Z,1.05
2023-05-06T13:03:56.155Z,0.93
2023-05-06T13:06:22.834Z,0.90
2023-05-06T13:08:49.461Z,1.00
2023-05-06T13:11:16.493Z,1.38
2023-05-06T13:13:43.539Z,1.00
2023-05-06T13:16:10.214Z,1.00
2023-05-06T13:18:37.072Z,1.10
2023-05-06T13:21:03.999Z,1.23
2023-05-06T13:23:31.818Z,1.13
2023-05-06T13:26:04.862Z,1.20
2023-05-06T13:28:33.595Z,1.25
2023-05-06T13:31:00.382Z,1.52
2023-05-06T13:33:27.113Z,1.17
2023-05-06T13:35:53.878Z,1.38
2023-05-06T13:38:20.609Z,1.38
2023-05-06T13:40:53.113Z,1.40
2023-05-06T13:43:20.776Z,1.25
2023-05-06T13:45:47.528Z,1.33
2023-05-06T13:48:14.818Z,1.30
2023-05-06T13:50:42.541Z,1.60
2023-05-06T13:53:09.370Z,1.30
2023-05-06T13:55:36.219Z,1.40
2023-05-06T13:58:03.810Z,1.33
2023-05-06T14:00:30.762Z,1.30
2023-05-06T14:02:57.773Z,1.50
2023-05-06T14:05:24.687Z,1.45
2023-05-06T14:07:51.409Z,1.20
2023-05-06T14:10:20.977Z,1.10
2023-05-06T14:12:48.288Z,0.88
2023-05-06T14:15:15.184Z,1.10
2023-05-06T14:17:42.521Z,1.25
2023-05-06T14:20:10.213Z,1.25
2023-05-06T14:22:39.717Z,1.08
2023-05-06T14:25:07.261Z,0.98
2023-05-06T14:27:34.344Z,0.80
2023-05-06T14:30:02.374Z,1.10
2023-05-06T14:32:29.268Z,1.48
2023-05-06T14:34:56.218Z,1.45
2023-05-06T14:37:22.930Z,1.00
2023-05-06T14:39:49.828Z,1.00
2023-05-06T14:42:16.611Z,1.20
2023-05-06T14:44:45.072Z,1.50
2023-05-06T14:47:11.776Z,0.98
2023-05-06T14:49:38.425Z,1.10
2023-05-06T14:52:05.073Z,1.30
2023-05-06T14:54:31.753Z,1.00
2023-05-06T14:57:01.273Z,1.20
2023-05-06T14:59:28.258Z,1.10
2023-05-06T15:01:56.537Z,1.13
2023-05-06T15:04:23.265Z,1.20
2023-05-06T15:06:49.905Z,1.00
2023-05-06T15:09:16.540Z,1.00
2023-05-06T15:11:44.124Z,0.85
2023-05-06T15:14:10.843Z,1.13
2023-05-06T15:16:37.489Z,1.00
2023-05-06T15:19:04.408Z,1.25
2023-05-06T15:21:31.532Z,0.90
2023-05-06T15:23:58.215Z,1.00
2023-05-06T15:26:24.874Z,1.35
2023-05-06T15:28:51.505Z,1.23
2023-05-06T15:31:18.298Z,1.00
2023-05-06T15:33:47.478Z,1.20
2023-05-06T15:36:14.178Z,1.30
2023-05-06T15:38:59.891Z,1.00
2023-05-06T15:41:32.695Z,0.85
2023-05-06T15:44:00.625Z,1.42
2023-05-06T15:46:28.081Z,0.95
2023-05-06T15:49:17.466Z,1.40
2023-05-06T15:51:42.333Z,1.00
2023-05-06T15:54:09.000Z,1.35
2023-05-06T15:56:40.596Z,1.02
2023-05-06T15:59:08.331Z,1.25
2023-05-06T16:01:50.682Z,1.20
2023-05-06T16:04:22.517Z,1.45
2023-05-06T16:06:49.717Z,1.48
2023-05-06T16:09:16.546Z,1.40
2023-05-06T16:11:43.284Z,1.25
2023-05-06T16:14:09.957Z,1.10
2023-05-06T16:16:36.785Z,1.10
2023-05-06T16:19:03.556Z,1.30
2023-05-06T16:21:30.262Z,1.35
2023-05-06T16:23:56.940Z,1.55
2023-05-06T16:26:24.525Z,1.77
2023-05-06T16:28:51.242Z,1.27
2023-05-06T16:31:18.516Z,1.45
2023-05-06T16:33:45.313Z,1.30
2023-05-06T16:36:12.554Z,1.33
2023-05-06T16:38:39.188Z,1.50
2023-05-06T16:41:05.953Z,1.45
2023-05-06T16:43:32.650Z,1.30
2023-05-06T16:45:59.316Z,1.33
2023-05-06T16:48:26.198Z,1.70
2023-05-06T16:50:53.035Z,1.38
2023-05-06T16:53:19.841Z,2.42
2023-05-06T16:55:50.370Z,1.10
2023-05-06T16:58:17.154Z,1.10
2023-05-06T17:00:44.071Z,1.15
2023-05-06T17:03:11.597Z,1.25
2023-05-06T17:05:38.481Z,1.20
2023-05-06T17:08:05.575Z,1.20
2023-05-06T17:10:32.334Z,1.63
2023-05-06T17:12:59.439Z,1.67
2023-05-06T17:15:26.389Z,1.50
2023-05-06T17:17:53.156Z,1.60
2023-05-06T17:20:20.108Z,1.48
2023-05-06T17:22:47.083Z,1.60
2023-05-06T17:25:14.051Z,1.42
2023-05-06T17:27:40.814Z,1.15
2023-05-06T17:30:09.894Z,1.55
2023-05-06T17:32:36.993Z,1.50
2023-05-06T17:35:04.057Z,1.35
2023-05-06T17:37:31.485Z,1.70
2023-05-06T17:39:58.197Z,1.90
2023-05-06T17:42:27.333Z,1.55
2023-05-06T17:44:54.807Z,2.38
2023-05-06T17:47:24.474Z,2.00
2023-05-06T17:49:53.443Z,1.42
2023-05-06T17:52:20.718Z,1.30
2023-05-06T17:54:57.041Z,1.10
2023-05-06T17:57:34.520Z,1.60
2023-05-06T18:00:01.136Z,1.50
2023-05-06T18:02:27.885Z,1.25
2023-05-06T18:04:54.552Z,1.20
2023-05-06T18:07:21.171Z,1.25
2023-05-06T18:09:51.898Z,1.38
2023-05-06T18:12:19.590Z,1.25
2023-05-06T18:14:46.765Z,1.30
2023-05-06T18:17:13.522Z,1.10
2023-05-06T18:19:40.430Z,1.00
2023-05-06T18:22:07.102Z,1.20
2023-05-06T18:24:34.700Z,1.40
2023-05-06T18:27:02.239Z,1.23
2023-05-06T18:29:30.321Z,1.20
2023-05-06T18:31:57.428Z,1.83
2023-05-06T18:34:24.258Z,1.63
2023-05-06T18:36:51.201Z,1.77
2023-05-06T18:39:17.976Z,1.63
2023-05-06T18:41:44.739Z,2.15
2023-05-06T18:44:11.899Z,4.30
2023-05-06T18:46:38.697Z,2.67
2023-05-06T18:49:06.572Z,1.60
2023-05-06T18:51:33.303Z,1.95
2023-05-06T18:54:00.052Z,1.63
2023-05-06T18:56:26.731Z,1.90
2023-05-06T18:58:53.427Z,2.33
2023-05-06T19:01:20.160Z,2.67
2023-05-06T19:03:47.001Z,4.45
2023-05-06T19:06:13.923Z,5.40
2023-05-06T19:08:40.798Z,4.57
2023-05-06T19:11:19.135Z,3.15
2023-05-06T19:13:46.341Z,2.55
2023-05-06T19:16:13.852Z,2.38
2023-05-06T19:18:40.795Z,2.60
2023-05-06T19:21:10.898Z,3.25
2023-05-06T19:23:37.884Z,3.33
2023-05-06T19:26:06.658Z,2.58
2023-05-06T19:28:34.237Z,2.58
2023-05-06T19:31:01.449Z,2.50
2023-05-06T19:33:28.448Z,2.08
2023-05-06T19:35:55.320Z,2.20
2023-05-06T19:38:22.065Z,3.03
2023-05-06T19:40:48.830Z,2.00
2023-05-06T19:43:15.569Z,8.02
2023-05-06T19:45:42.520Z,5.22
2023-05-06T19:48:09.293Z,10.45
2023-05-06T19:50:36.709Z,4.70
2023-05-06T19:53:03.939Z,3.63
2023-05-06T19:55:31.017Z,1.63
2023-05-06T19:57:57.942Z,1.83
2023-05-06T20:00:27.280Z,1.88
2023-05-06T20:03:02.255Z,1.80
2023-05-06T20:05:34.808Z,3.38
2023-05-06T20:08:02.519Z,2.50
2023-05-06T20:10:32.299Z,2.20
2023-05-06T20:12:59.027Z,2.40
2023-05-06T20:15:26.670Z,7.38
2023-05-06T20:17:56.518Z,3.25
2023-05-06T20:20:23.391Z,6.68
2023-05-06T20:22:50.131Z,7.63
2023-05-06T20:25:29.060Z,2.65
2023-05-06T20:27:56.284Z,4.80
2023-05-06T20:30:23.077Z,1.90
2023-05-06T20:32:52.060Z,2.33
2023-05-06T20:35:23.376Z,1.88
2023-05-06T20:38:00.064Z,2.22
2023-05-06T20:40:30.022Z,3.75
2023-05-06T20:42:56.957Z,2.15
2023-05-06T20:45:23.987Z,2.45
2023-05-06T20:47:50.848Z,2.85
2023-05-06T20:50:20.634Z,3.03
2023-05-06T20:52:54.653Z,2.08
2023-05-06T20:55:23.309Z,2.03
2023-05-06T20:57:50.320Z,2.90
2023-05-06T21:00:23.350Z,3.10
2023-05-06T21:02:50.154Z,2.85
2023-05-06T21:05:20.083Z,2.42
2023-05-06T21:07:49.582Z,1.95
2023-05-06T21:10:16.188Z,2.10
2023-05-06T21:12:54.393Z,2.00
2023-05-06T21:15:24.319Z,2.03
2023-05-06T21:17:51.291Z,2.47
2023-05-06T21:20:19.382Z,2.30
2023-05-06T21:22:46.068Z,2.10
2023-05-06T21:25:13.394Z,1.65
2023-05-06T21:27:43.490Z,1.63
2023-05-06T21:30:19.270Z,1.70
2023-05-06T21:32:46.652Z,2.08
2023-05-06T21:35:13.598Z,1.92
2023-05-06T21:37:40.486Z,1.85
2023-05-06T21:40:07.917Z,1.92
2023-05-06T21:42:34.631Z,1.63
2023-05-06T21:45:01.363Z,2.38
2023-05-06T21:47:28.135Z,2.10
2023-05-06T21:49:54.991Z,1.50
2023-05-06T21:52:21.680Z,1.70
2023-05-06T21:54:48.486Z,2.25
2023-05-06T21:57:15.419Z,1.42
2023-05-06T21:59:42.501Z,1.85
2023-05-06T22:02:09.330Z,2.00
2023-05-06T22:04:36.162Z,1.90
2023-05-06T22:07:02.905Z,1.42
2023-05-06T22:09:29.613Z,1.60
2023-05-06T22:11:56.304Z,1.98
2023-05-06T22:14:26.940Z,1.50
2023-05-06T22:16:57.170Z,2.33
2023-05-06T22:19:23.868Z,1.45
2023-05-06T22:21:50.694Z,2.38
2023-05-06T22:24:17.374Z,1.52
2023-05-06T22:26:44.160Z,1.50
2023-05-06T22:29:11.033Z,1.73
2023-05-06T22:31:37.870Z,1.85
2023-05-06T22:34:04.729Z,1.88
2023-05-06T22:36:33.636Z,1.60
2023-05-06T22:39:01.276Z,2.20
2023-05-06T22:41:28.020Z,2.65
2023-05-06T22:43:54.723Z,2.55
2023-05-06T22:46:21.565Z,2.67
2023-05-06T22:48:48.551Z,2.17
2023-05-06T22:51:19.443Z,1.58
2023-05-06T22:53:46.328Z,1.73
2023-05-06T22:56:13.163Z,2.25
2023-05-06T22:58:39.892Z,1.70
2023-05-06T23:01:07.568Z,2.15
2023-05-06T23:03:35.689Z,2.00
2023-05-06T23:06:03.922Z,1.88
2023-05-06T23:08:30.661Z,1.80
2023-05-06T23:10:57.408Z,2.10
2023-05-06T23:13:24.150Z,1.60
2023-05-06T23:15:51.027Z,2.10
2023-05-06T23:18:17.818Z,2.25
2023-05-06T23:20:44.566Z,1.60
2023-05-06T23:23:11.269Z,1.63
2023-05-06T23:25:38.001Z,1.90
2023-05-06T23:28:05.156Z,1.60
2023-05-06T23:30:31.941Z,2.40
2023-05-06T23:32:58.723Z,2.03
2023-05-06T23:35:25.950Z,2.15
2023-05-06T23:37:52.713Z,1.67
2023-05-06T23:40:19.530Z,1.85
2023-05-06T23:42:46.242Z,2.47
2023-05-06T23:45:13.093Z,2.63
2023-05-06T23:47:40.136Z,1.65
2023-05-06T23:50:07.450Z,1.75
2023-05-06T23:52:34.353Z,1.80
2023-05-06T23:55:01.142Z,1.70
2023-05-06T23:57:27.886Z,1.85
2023-05-06T23:59:54.635Z,1.60
